• pl
  • eng

Awiacja
WIADOMOŚCI
ostatnia aktualizacja: 17.04.2020 19:04
Szanowni Państwo,

mając na uwadze sytuację związaną z pandemią wywołaną koronawirusem SARS-Cov-2 oraz w trosce o bezpieczeństwo Państwa oraz naszych pracowników, IMGW-PIB podjął decyzję o przeniesieniu kolejnej edycji Szkoły Meteorologii Lotniczej na przyszły rok. W tej chwili podanie dokładnego terminu szkoły nie jest możliwe, ale jak tylko będzie znany zostanie ogłoszony na naszych stronach internetowych, do których śledzenia serdecznie zapraszamy.

Kliknij na pogrubioną czerwoną nazwę, aby odkodować depeszę. 14:31 18.09.2020
  • WIND
  • SIGNIFICANT EURO
  • SIGNIFICANT
  • SIGMET
  • AIRMET
  • TAF FC
  • TAF FT
  • METAR GG30
  • METAR GG00


METAR EPBY 181230Z 29007KT 250V040 CAVOK 19/05 Q1028=

METAR EPGD 181230Z 31010KT CAVOK 17/05 Q1028 =

METAR EPKK 181230Z VRB04KT CAVOK 16/05 Q1028 =

METAR EPKT 181230Z VRB05KT CAVOK 16/04 Q1028 =

METAR EPLB 181230Z 32012KT CAVOK 17/04 Q1026 =

METAR EPLL 181230Z 31007KT 250V360 CAVOK 16/04 Q1028 =

METAR EPMO 181230Z 32008KT 280V350 CAVOK 18/03 Q1027 =

METAR EPPO 181230Z 28006KT 210V310 CAVOK 18/01 Q1029 =

METAR EPRA 181230Z 30009KT 260V340 CAVOK 17/06 Q1027=

METAR EPRZ 181230Z 32013KT CAVOK 17/04 Q1027 =

METAR EPSC 181230Z 21003KT 160V270 CAVOK 18/08 Q1029 =

METAR EPSY 181230Z 34008KT 300V030 CAVOK 17/07 Q1027=

METAR EPWA 181230Z 31010KT 280V340 CAVOK 18/05 Q1027 NOSIG=

METAR EPWR 181230Z VRB01KT CAVOK 17/05 Q1029 =

METAR EPZG 181230Z VRB03KT CAVOK 18/00 Q1030 =
Awiacja.imgw.pl jest pogodowym serwisem informacyjnym
Instytutu Meteorologii i Gospodarki Wodnej Państwowego Instytutu Badawczego.
Copyright IMGW PIB 2009-2019© Wszelkie prawa zastrzeżone.